Time,TemperatureF,DewpointF,PressureIn,WindDirection,WindDirectionDegrees,WindSpeedMPH,WindSpeedGustMPH,Humidity,HourlyPrecipIn,Conditions,Clouds,dailyrainin,SoftwareType,DateUTC
2013-02-25 00:01:00,21.0,13.0,30.03,ENE,75,1.0,9.0,70,0.00,,,0.00,,2013-02-25 07:01:00,
2013-02-25 00:11:00,20.0,13.0,30.04,NE,49,0.0,5.0,73,0.00,,,0.00,,2013-02-25 07:11:00,
2013-02-25 00:21:00,20.0,13.0,30.04,NE,49,0.0,5.0,73,0.00,,,0.00,,2013-02-25 07:21:00,
2013-02-25 00:31:00,20.0,13.0,30.03,North,5,6.0,10.0,73,0.00,,,0.00,,2013-02-25 07:31:00,
2013-02-25 00:41:00,20.0,13.0,30.03,North,5,6.0,10.0,73,0.00,,,0.00,,2013-02-25 07:41:00,
2013-02-25 00:52:00,20.0,13.0,30.04,North,360,3.0,6.0,73,0.00,,,0.00,,2013-02-25 07:52:00,
2013-02-25 01:01:00,19.0,12.0,30.04,North,360,2.0,5.0,73,0.00,,,0.00,,2013-02-25 08:01:00,
2013-02-25 01:11:00,19.0,12.0,30.04,North,360,2.0,5.0,73,0.00,,,0.00,,2013-02-25 08:11:00,
2013-02-25 01:21:00,18.0,12.0,30.04,NW,317,2.0,7.0,77,0.00,,,0.00,,2013-02-25 08:21:00,
2013-02-25 01:31:00,18.0,12.0,30.04,NW,317,2.0,7.0,77,0.00,,,0.00,,2013-02-25 08:31:00,
2013-02-25 01:41:00,18.0,12.0,30.04,NW,317,2.0,7.0,77,0.00,,,0.00,,2013-02-25 08:41:00,
2013-02-25 01:52:00,18.0,11.0,30.03,WNW,292,2.0,5.0,75,0.00,,,0.00,,2013-02-25 08:52:00,
2013-02-25 02:01:00,18.0,12.0,30.03,WNW,292,4.0,6.0,76,0.00,,,0.00,,2013-02-25 09:01:00,
2013-02-25 02:12:00,18.0,12.0,30.03,WNW,292,4.0,6.0,76,0.00,,,0.00,,2013-02-25 09:12:00,
2013-02-25 02:21:00,19.0,13.0,30.03,WNW,292,3.0,5.0,76,0.00,,,0.00,,2013-02-25 09:21:00,
2013-02-25 02:31:00,20.0,12.0,30.03,WNW,292,4.0,7.0,72,0.00,,,0.00,,2013-02-25 09:31:00,
2013-02-25 02:41:00,20.0,12.0,30.03,WNW,292,4.0,7.0,72,0.00,,,0.00,,2013-02-25 09:41:00,
2013-02-25 02:52:00,19.0,12.0,30.02,WNW,292,1.0,3.0,73,0.00,,,0.00,,2013-02-25 09:52:00,
2013-02-25 03:01:00,18.0,12.0,30.02,WNW,292,0.0,4.0,76,0.00,,,0.00,,2013-02-25 10:01:00,
2013-02-25 03:11:00,18.0,12.0,30.02,WNW,292,0.0,4.0,76,0.00,,,0.00,,2013-02-25 10:11:00,
2013-02-25 03:21:00,17.0,12.0,30.01,WNW,290,2.0,5.0,79,0.00,,,0.00,,2013-02-25 10:21:00,
2013-02-25 03:31:00,17.0,12.0,30.01,WNW,290,2.0,6.0,79,0.00,,,0.00,,2013-02-25 10:31:00,
2013-02-25 03:41:00,17.0,12.0,30.01,WNW,290,2.0,6.0,79,0.00,,,0.00,,2013-02-25 10:41:00,
2013-02-25 03:52:00,17.0,11.0,30.01,WNW,290,2.0,5.0,78,0.00,,,0.00,,2013-02-25 10:52:00,
2013-02-25 04:01:00,16.0,10.0,30.00,WNW,290,0.0,4.0,78,0.00,,,0.00,,2013-02-25 11:01:00,
2013-02-25 04:11:00,16.0,10.0,30.00,WNW,290,0.0,4.0,78,0.00,,,0.00,,2013-02-25 11:11:00,
2013-02-25 04:21:00,15.0,10.0,30.00,WNW,290,2.0,4.0,80,0.00,,,0.00,,2013-02-25 11:21:00,
2013-02-25 04:31:00,15.0,11.0,30.00,WNW,290,2.0,6.0,82,0.00,,,0.00,,2013-02-25 11:31:00,
2013-02-25 04:42:00,15.0,11.0,30.00,WNW,290,2.0,6.0,82,0.00,,,0.00,,2013-02-25 11:42:00,
2013-02-25 04:52:00,16.0,11.0,30.01,WNW,290,1.0,4.0,82,0.00,,,0.00,,2013-02-25 11:52:00,
2013-02-25 05:01:00,16.0,11.0,30.00,WNW,290,0.0,2.0,79,0.00,,,0.00,,2013-02-25 12:01:00,
2013-02-25 05:11:00,16.0,11.0,30.00,WNW,290,0.0,2.0,79,0.00,,,0.00,,2013-02-25 12:11:00,
2013-02-25 05:21:00,16.0,11.0,30.01,WNW,290,0.0,4.0,79,0.00,,,0.00,,2013-02-25 12:21:00,
2013-02-25 05:31:00,15.0,9.0,30.01,WNW,290,2.0,3.0,78,0.00,,,0.00,,2013-02-25 12:31:00,
2013-02-25 05:41:00,15.0,9.0,30.01,WNW,290,2.0,3.0,78,0.00,,,0.00,,2013-02-25 12:41:00,
2013-02-25 05:54:00,15.0,10.0,30.00,WNW,290,4.0,5.0,79,0.00,,,0.00,,2013-02-25 12:54:00,
2013-02-25 06:01:00,19.0,12.0,29.99,WNW,291,5.0,9.0,73,0.00,,,0.00,,2013-02-25 13:01:00,
2013-02-25 06:11:00,19.0,12.0,29.99,WNW,291,5.0,9.0,73,0.00,,,0.00,,2013-02-25 13:11:00,
2013-02-25 06:21:00,19.0,11.0,29.98,West,265,2.0,5.0,69,0.00,,,0.00,,2013-02-25 13:21:00,
2013-02-25 06:31:00,18.0,10.0,29.98,West,265,1.0,5.0,70,0.00,,,0.00,,2013-02-25 13:31:00,
2013-02-25 06:41:00,18.0,10.0,29.98,West,265,1.0,5.0,70,0.00,,,0.00,,2013-02-25 13:41:00,
2013-02-25 06:52:00,17.0,9.0,29.98,West,265,1.0,3.0,70,0.00,,,0.00,,2013-02-25 13:52:00,
2013-02-25 07:02:00,16.0,9.0,29.98,West,265,0.0,4.0,74,0.00,,,0.00,,2013-02-25 14:02:00,
2013-02-25 07:13:00,16.0,9.0,29.98,West,265,0.0,4.0,74,0.00,,,0.00,,2013-02-25 14:13:00,
2013-02-25 07:21:00,17.0,10.0,29.97,West,265,3.0,6.0,75,0.00,,,0.00,,2013-02-25 14:21:00,
2013-02-25 07:31:00,19.0,11.0,29.98,West,265,1.0,6.0,69,0.00,,,0.00,,2013-02-25 14:31:00,
2013-02-25 07:41:00,19.0,11.0,29.98,West,265,1.0,6.0,69,0.00,,,0.00,,2013-02-25 14:41:00,
2013-02-25 07:52:00,19.0,11.0,29.97,West,265,0.0,3.0,70,0.00,,,0.00,,2013-02-25 14:52:00,
2013-02-25 08:02:00,20.0,12.0,29.96,West,265,0.0,4.0,71,0.00,,,0.00,,2013-02-25 15:02:00,
2013-02-25 08:11:00,20.0,12.0,29.96,West,265,0.0,4.0,71,0.00,,,0.00,,2013-02-25 15:11:00,
2013-02-25 08:21:00,21.0,12.0,29.96,West,265,0.0,3.0,68,0.00,,,0.00,,2013-02-25 15:21:00,
2013-02-25 08:32:00,23.0,13.0,29.96,NE,45,5.0,10.0,65,0.00,,,0.00,,2013-02-25 15:32:00,
2013-02-25 08:41:00,23.0,13.0,29.96,NE,45,5.0,10.0,65,0.00,,,0.00,,2013-02-25 15:41:00,
2013-02-25 08:52:00,22.0,13.0,29.96,NNE,31,1.0,4.0,67,0.00,,,0.00,,2013-02-25 15:52:00,
2013-02-25 09:01:00,24.0,13.0,29.95,NNE,33,3.0,5.0,63,0.00,,,0.00,,2013-02-25 16:01:00,
2013-02-25 09:11:00,24.0,13.0,29.95,NNE,33,3.0,5.0,63,0.00,,,0.00,,2013-02-25 16:11:00,
2013-02-25 09:21:00,26.0,13.0,29.93,NE,55,11.0,13.0,57,0.00,,,0.00,,2013-02-25 16:21:00,
2013-02-25 09:31:00,28.0,14.0,29.93,NE,45,6.0,9.0,54,0.00,,,0.00,,2013-02-25 16:31:00,
2013-02-25 09:41:00,28.0,14.0,29.93,NE,45,6.0,9.0,54,0.00,,,0.00,,2013-02-25 16:41:00,
2013-02-25 09:52:00,29.0,12.0,29.92,NNE,29,10.0,12.0,49,0.00,,,0.00,,2013-02-25 16:52:00,
2013-02-25 10:01:00,31.0,13.0,29.92,ENE,76,14.0,19.0,46,0.00,,,0.00,,2013-02-25 17:01:00,
2013-02-25 10:11:00,31.0,13.0,29.92,ENE,76,14.0,19.0,46,0.00,,,0.00,,2013-02-25 17:11:00,
2013-02-25 10:21:00,31.0,13.0,29.92,ENE,67,8.0,13.0,47,0.00,,,0.00,,2013-02-25 17:21:00,
2013-02-25 10:31:00,32.0,13.0,29.91,NE,49,8.0,14.0,45,0.00,,,0.00,,2013-02-25 17:31:00,
2013-02-25 10:41:00,32.0,13.0,29.91,NE,49,8.0,14.0,45,0.00,,,0.00,,2013-02-25 17:41:00,
2013-02-25 10:52:00,33.0,13.0,29.90,NE,49,10.0,13.0,43,0.00,,,0.00,,2013-02-25 17:52:00,
2013-02-25 11:01:00,34.0,13.0,29.89,NE,38,8.0,12.0,41,0.00,,,0.00,,2013-02-25 18:01:00,
2013-02-25 11:12:00,34.0,13.0,29.89,NE,38,8.0,12.0,41,0.00,,,0.00,,2013-02-25 18:12:00,
2013-02-25 11:21:00,35.0,13.0,29.89,NE,49,8.0,13.0,39,0.00,,,0.00,,2013-02-25 18:21:00,
2013-02-25 11:32:00,35.0,13.0,29.89,NE,49,8.0,13.0,39,0.00,,,0.00,,2013-02-25 18:32:00,
2013-02-25 11:41:00,35.0,13.0,29.89,NE,49,8.0,13.0,39,0.00,,,0.00,,2013-02-25 18:41:00,
2013-02-25 11:51:00,35.0,12.0,29.88,ENE,67,6.0,10.0,38,0.00,,,0.00,,2013-02-25 18:51:00,
2013-02-25 12:01:00,36.0,12.0,29.87,NNE,28,9.0,14.0,37,0.00,,,0.00,,2013-02-25 19:01:00,
2013-02-25 12:11:00,36.0,12.0,29.87,NNE,28,9.0,14.0,37,0.00,,,0.00,,2013-02-25 19:11:00,
2013-02-25 12:21:00,37.0,13.0,29.87,NE,47,11.0,18.0,37,0.00,,,0.00,,2013-02-25 19:21:00,
2013-02-25 12:31:00,37.0,13.0,29.85,NE,36,8.0,15.0,36,0.00,,,0.00,,2013-02-25 19:31:00,
2013-02-25 12:41:00,37.0,13.0,29.85,NE,36,8.0,15.0,36,0.00,,,0.00,,2013-02-25 19:41:00,
2013-02-25 12:52:00,39.0,14.0,29.85,NNW,337,7.0,13.0,36,0.00,,,0.00,,2013-02-25 19:52:00,
2013-02-25 13:01:00,40.0,16.0,29.84,NNE,19,7.0,15.0,37,0.00,,,0.00,,2013-02-25 20:01:00,
2013-02-25 13:11:00,40.0,16.0,29.84,NNE,19,7.0,15.0,37,0.00,,,0.00,,2013-02-25 20:11:00,
2013-02-25 13:21:00,40.0,15.0,29.83,NNE,30,15.0,19.0,36,0.00,,,0.00,,2013-02-25 20:21:00,
2013-02-25 13:31:00,40.0,16.0,29.82,NE,36,12.0,19.0,38,0.00,,,0.00,,2013-02-25 20:31:00,
2013-02-25 13:41:00,40.0,16.0,29.82,NE,36,12.0,19.0,38,0.00,,,0.00,,2013-02-25 20:41:00,
2013-02-25 13:52:00,40.0,16.0,29.81,NNE,17,12.0,20.0,37,0.00,,,0.00,,2013-02-25 20:52:00,
2013-02-25 14:01:00,40.0,16.0,29.80,NNE,15,12.0,18.0,37,0.00,,,0.00,,2013-02-25 21:01:00,
2013-02-25 14:11:00,40.0,16.0,29.80,NNE,15,12.0,18.0,37,0.00,,,0.00,,2013-02-25 21:11:00,
2013-02-25 14:21:00,41.0,15.0,29.80,North,5,8.0,17.0,35,0.00,,,0.00,,2013-02-25 21:21:00,
2013-02-25 14:31:00,41.0,16.0,29.81,North,11,8.0,16.0,36,0.00,,,0.00,,2013-02-25 21:31:00,
2013-02-25 14:41:00,41.0,16.0,29.81,North,11,8.0,16.0,36,0.00,,,0.00,,2013-02-25 21:41:00,
2013-02-25 14:51:00,39.0,16.0,29.80,North,349,6.0,22.0,38,0.00,,,0.00,,2013-02-25 21:51:00,
2013-02-25 15:01:00,38.0,16.0,29.80,NE,46,8.0,16.0,40,0.00,,,0.00,,2013-02-25 22:01:00,
2013-02-25 15:11:00,38.0,16.0,29.80,NE,46,8.0,16.0,40,0.00,,,0.00,,2013-02-25 22:11:00,
2013-02-25 15:21:00,38.0,16.0,29.80,NE,44,7.0,14.0,41,0.00,,,0.00,,2013-02-25 22:21:00,
2013-02-25 15:31:00,38.0,16.0,29.80,NE,45,4.0,10.0,41,0.00,,,0.00,,2013-02-25 22:31:00,
2013-02-25 15:41:00,38.0,16.0,29.80,NE,45,4.0,10.0,41,0.00,,,0.00,,2013-02-25 22:41:00,
2013-02-25 15:51:00,37.0,16.0,29.80,NNE,19,7.0,10.0,42,0.00,,,0.00,,2013-02-25 22:51:00,
2013-02-25 16:01:00,36.0,16.0,29.79,NNE,28,10.0,14.0,44,0.00,,,0.00,,2013-02-25 23:01:00,
2013-02-25 16:11:00,36.0,16.0,29.79,NNE,28,10.0,14.0,44,0.00,,,0.00,,2013-02-25 23:11:00,
2013-02-25 16:22:00,35.0,16.0,29.80,NE,44,4.0,15.0,45,0.00,,,0.00,,2013-02-25 23:22:00,
2013-02-25 16:31:00,35.0,16.0,29.79,North,355,7.0,14.0,45,0.00,,,0.00,,2013-02-25 23:31:00,
2013-02-25 16:41:00,35.0,16.0,29.79,North,355,7.0,14.0,45,0.00,,,0.00,,2013-02-25 23:41:00,
2013-02-25 16:52:00,35.0,16.0,29.80,NE,56,4.0,6.0,45,0.00,,,0.00,,2013-02-25 23:52:00,
2013-02-25 17:01:00,35.0,16.0,29.80,NW,317,5.0,10.0,46,0.00,,,0.00,,2013-02-26 00:01:00,
2013-02-25 17:11:00,35.0,16.0,29.80,NW,317,5.0,10.0,46,0.00,,,0.00,,2013-02-26 00:11:00,
2013-02-25 17:21:00,35.0,16.0,29.80,NE,44,6.0,12.0,46,0.00,,,0.00,,2013-02-26 00:21:00,
2013-02-25 17:32:00,34.0,16.0,29.80,NE,42,7.0,12.0,47,0.00,,,0.00,,2013-02-26 00:32:00,
2013-02-25 17:41:00,34.0,16.0,29.80,NE,42,7.0,12.0,47,0.00,,,0.00,,2013-02-26 00:41:00,
2013-02-25 17:51:00,34.0,16.0,29.80,NE,41,4.0,14.0,48,0.00,,,0.00,,2013-02-26 00:51:00,
2013-02-25 18:01:00,33.0,15.0,29.80,East,92,1.0,8.0,48,0.00,,,0.00,,2013-02-26 01:01:00,
2013-02-25 18:11:00,33.0,15.0,29.80,East,92,1.0,8.0,48,0.00,,,0.00,,2013-02-26 01:11:00,
2013-02-25 18:21:00,33.0,16.0,29.80,ENE,59,3.0,13.0,49,0.00,,,0.00,,2013-02-26 01:21:00,
2013-02-25 18:31:00,33.0,16.0,29.81,SSE,163,5.0,8.0,49,0.00,,,0.00,,2013-02-26 01:31:00,
2013-02-25 18:41:00,33.0,16.0,29.81,SSE,163,5.0,8.0,49,0.00,,,0.00,,2013-02-26 01:41:00,
2013-02-25 18:51:00,33.0,15.0,29.81,WSW,258,5.0,11.0,47,0.00,,,0.00,,2013-02-26 01:51:00,
2013-02-25 19:01:00,35.0,10.0,29.82,WSW,240,14.0,22.0,35,0.00,,,0.00,,2013-02-26 02:01:00,
2013-02-25 19:11:00,35.0,10.0,29.82,WSW,240,14.0,22.0,35,0.00,,,0.00,,2013-02-26 02:11:00,
2013-02-25 19:21:00,35.0,9.0,29.82,West,262,11.0,22.0,34,0.00,,,0.00,,2013-02-26 02:21:00,
2013-02-25 19:31:00,32.0,15.0,29.83,NNE,30,5.0,10.0,48,0.00,,,0.00,,2013-02-26 02:31:00,
2013-02-25 19:41:00,32.0,15.0,29.83,NNE,30,5.0,10.0,48,0.00,,,0.00,,2013-02-26 02:41:00,
2013-02-25 19:52:00,31.0,15.0,29.84,ENE,61,3.0,7.0,50,0.00,,,0.00,,2013-02-26 02:52:00,
2013-02-25 20:01:00,31.0,15.0,29.84,ENE,61,4.0,7.0,52,0.00,,,0.00,,2013-02-26 03:01:00,
2013-02-25 20:11:00,31.0,15.0,29.84,ENE,61,4.0,7.0,52,0.00,,,0.00,,2013-02-26 03:11:00,
2013-02-25 20:21:00,31.0,16.0,29.84,NNE,25,3.0,8.0,53,0.00,,,0.00,,2013-02-26 03:21:00,
2013-02-25 20:31:00,30.0,16.0,29.85,NE,49,4.0,10.0,55,0.00,,,0.00,,2013-02-26 03:31:00,
2013-02-25 20:41:00,30.0,16.0,29.85,NE,49,4.0,10.0,55,0.00,,,0.00,,2013-02-26 03:41:00,
2013-02-25 20:51:00,29.0,15.0,29.85,ENE,68,5.0,9.0,56,0.00,,,0.00,,2013-02-26 03:51:00,
2013-02-25 21:01:00,28.0,15.0,29.85,ENE,59,7.0,11.0,57,0.00,,,0.00,,2013-02-26 04:01:00,
2013-02-25 21:11:00,28.0,15.0,29.85,ENE,59,7.0,11.0,57,0.00,,,0.00,,2013-02-26 04:11:00,
2013-02-25 21:21:00,28.0,16.0,29.86,ENE,58,3.0,6.0,59,0.00,,,0.00,,2013-02-26 04:21:00,
2013-02-25 21:31:00,28.0,16.0,29.86,ENE,58,3.0,6.0,59,0.00,,,0.00,,2013-02-26 04:31:00,
2013-02-25 21:42:00,28.0,16.0,29.86,ENE,58,3.0,6.0,59,0.00,,,0.00,,2013-02-26 04:42:00,
2013-02-25 21:51:00,27.0,15.0,29.86,ENE,58,2.0,4.0,61,0.00,,,0.00,,2013-02-26 04:51:00,
2013-02-25 22:01:00,28.0,16.0,29.87,WNW,300,5.0,10.0,59,0.00,,,0.00,,2013-02-26 05:01:00,
2013-02-25 22:11:00,28.0,16.0,29.87,WNW,300,5.0,10.0,59,0.00,,,0.00,,2013-02-26 05:11:00,
2013-02-25 22:21:00,29.0,16.0,29.87,WNW,297,0.0,6.0,57,0.00,,,0.00,,2013-02-26 05:21:00,
2013-02-25 22:31:00,29.0,16.0,29.87,WNW,297,0.0,6.0,57,0.00,,,0.00,,2013-02-26 05:31:00,
2013-02-25 22:42:00,29.0,16.0,29.87,WNW,297,0.0,6.0,57,0.00,,,0.00,,2013-02-26 05:42:00,
2013-02-25 22:52:00,32.0,9.0,29.88,SSW,208,10.0,17.0,38,0.00,,,0.00,,2013-02-26 05:52:00,
2013-02-25 23:01:00,32.0,8.0,29.88,SW,227,11.0,19.0,36,0.00,,,0.00,,2013-02-26 06:01:00,
2013-02-25 23:11:00,32.0,8.0,29.88,SW,227,11.0,19.0,36,0.00,,,0.00,,2013-02-26 06:11:00,
2013-02-25 23:21:00,32.0,9.0,29.89,SSW,197,8.0,17.0,37,0.00,,,0.00,,2013-02-26 06:21:00,
2013-02-25 23:31:00,32.0,10.0,29.88,South,186,0.0,11.0,39,0.00,,,0.00,,2013-02-26 06:31:00,
2013-02-25 23:41:00,32.0,10.0,29.88,South,186,0.0,11.0,39,0.00,,,0.00,,2013-02-26 06:41:00,
2013-02-25 23:51:00,31.0,14.0,29.89,NNE,27,3.0,8.0,49,0.00,,,0.00,,2013-02-26 06:51:00,